sensor_id;sensor_type;location;lat;lon;timestamp;temperature;humidity
22337;DHT22;14992;50.844;4.418;2023-02-20T00:02:15;8.50;99.90
22337;DHT22;14992;50.844;4.418;2023-02-20T00:04:46;8.50;99.90
22337;DHT22;14992;50.844;4.418;2023-02-20T00:07:14;8.50;99.90
22337;DHT22;14992;50.844;4.418;2023-02-20T00:09:43;8.50;99.90
22337;DHT22;14992;50.844;4.418;2023-02-20T00:12:13;8.50;99.90
22337;DHT22;14992;50.844;4.418;2023-02-20T00:14:42;8.40;99.90
22337;DHT22;14992;50.844;4.418;2023-02-20T00:17:10;8.40;99.90
22337;DHT22;14992;50.844;4.418;2023-02-20T00:19:39;8.50;99.90
22337;DHT22;14992;50.844;4.418;2023-02-20T00:22:08;8.50;99.90
22337;DHT22;14992;50.844;4.418;2023-02-20T00:24:37;8.50;99.90
22337;DHT22;14992;50.844;4.418;2023-02-20T00:27:05;8.40;99.90
22337;DHT22;14992;50.844;4.418;2023-02-20T00:29:36;8.50;99.90
22337;DHT22;14992;50.844;4.418;2023-02-20T00:32:05;8.50;99.90
22337;DHT22;14992;50.844;4.418;2023-02-20T00:34:34;8.40;99.90
22337;DHT22;14992;50.844;4.418;2023-02-20T00:37:02;8.50;99.90
22337;DHT22;14992;50.844;4.418;2023-02-20T00:39:31;8.40;99.90
22337;DHT22;14992;50.844;4.418;2023-02-20T00:42:00;8.40;99.90
22337;DHT22;14992;50.844;4.418;2023-02-20T00:44:29;8.30;99.90
22337;DHT22;14992;50.844;4.418;2023-02-20T00:46:59;8.30;99.90
22337;DHT22;14992;50.844;4.418;2023-02-20T00:49:28;8.20;99.90
22337;DHT22;14992;50.844;4.418;2023-02-20T00:52:08;8.20;99.90
22337;DHT22;14992;50.844;4.418;2023-02-20T00:54:37;8.20;99.90
22337;DHT22;14992;50.844;4.418;2023-02-20T00:57:06;8.10;99.90
22337;DHT22;14992;50.844;4.418;2023-02-20T00:59:35;8.20;99.90
22337;DHT22;14992;50.844;4.418;2023-02-20T01:02:05;8.20;99.90
22337;DHT22;14992;50.844;4.418;2023-02-20T01:04:34;8.10;99.90
22337;DHT22;14992;50.844;4.418;2023-02-20T01:07:03;8.00;99.90
22337;DHT22;14992;50.844;4.418;2023-02-20T01:09:33;8.00;99.90
22337;DHT22;14992;50.844;4.418;2023-02-20T01:12:01;7.90;99.90
22337;DHT22;14992;50.844;4.418;2023-02-20T01:14:30;7.90;99.90
22337;DHT22;14992;50.844;4.418;2023-02-20T01:17:01;7.90;99.90
22337;DHT22;14992;50.844;4.418;2023-02-20T01:19:31;7.90;99.90
22337;DHT22;14992;50.844;4.418;2023-02-20T01:22:00;8.00;99.90
22337;DHT22;14992;50.844;4.418;2023-02-20T01:24:32;8.00;99.90
22337;DHT22;14992;50.844;4.418;2023-02-20T01:27:01;7.90;99.90
22337;DHT22;14992;50.844;4.418;2023-02-20T01:29:30;7.90;99.90
22337;DHT22;14992;50.844;4.418;2023-02-20T01:31:58;7.90;99.90
22337;DHT22;14992;50.844;4.418;2023-02-20T01:34:27;7.90;99.90
22337;DHT22;14992;50.844;4.418;2023-02-20T01:36:58;8.00;99.90
22337;DHT22;14992;50.844;4.418;2023-02-20T01:39:28;8.00;99.90
22337;DHT22;14992;50.844;4.418;2023-02-20T01:41:59;8.10;99.90
22337;DHT22;14992;50.844;4.418;2023-02-20T01:44:32;8.00;99.90
22337;DHT22;14992;50.844;4.418;2023-02-20T01:47:04;8.00;99.90
22337;DHT22;14992;50.844;4.418;2023-02-20T01:49:36;8.10;99.90
22337;DHT22;14992;50.844;4.418;2023-02-20T01:52:11;8.00;99.90
22337;DHT22;14992;50.844;4.418;2023-02-20T01:54:42;7.90;99.90
22337;DHT22;14992;50.844;4.418;2023-02-20T01:57:16;7.90;99.90
22337;DHT22;14992;50.844;4.418;2023-02-20T01:59:46;8.00;99.90
22337;DHT22;14992;50.844;4.418;2023-02-20T02:02:16;8.10;99.90
22337;DHT22;14992;50.844;4.418;2023-02-20T02:04:46;8.20;99.90
22337;DHT22;14992;50.844;4.418;2023-02-20T02:07:18;8.20;99.90
22337;DHT22;14992;50.844;4.418;2023-02-20T02:09:51;8.20;99.90
22337;DHT22;14992;50.844;4.418;2023-02-20T02:12:22;8.30;99.90
22337;DHT22;14992;50.844;4.418;2023-02-20T02:14:51;8.30;99.90
22337;DHT22;14992;50.844;4.418;2023-02-20T02:17:37;8.30;99.90
22337;DHT22;14992;50.844;4.418;2023-02-20T02:20:35;8.40;99.90
22337;DHT22;14992;50.844;4.418;2023-02-20T02:23:43;8.30;99.90
22337;DHT22;14992;50.844;4.418;2023-02-20T02:29:41;8.50;99.90
22337;DHT22;14992;50.844;4.418;2023-02-20T02:32:42;8.50;99.90
22337;DHT22;14992;50.844;4.418;2023-02-20T02:35:30;8.50;99.90
22337;DHT22;14992;50.844;4.418;2023-02-20T02:38:14;8.50;99.90
22337;DHT22;14992;50.844;4.418;2023-02-20T02:40:51;8.50;99.90
22337;DHT22;14992;50.844;4.418;2023-02-20T02:43:27;8.50;99.90
22337;DHT22;14992;50.844;4.418;2023-02-20T02:46:05;8.60;99.90
22337;DHT22;14992;50.844;4.418;2023-02-20T02:48:38;8.70;99.90
22337;DHT22;14992;50.844;4.418;2023-02-20T02:51:15;8.60;99.90
22337;DHT22;14992;50.844;4.418;2023-02-20T02:54:08;8.60;99.90
22337;DHT22;14992;50.844;4.418;2023-02-20T02:56:39;8.60;99.90
22337;DHT22;14992;50.844;4.418;2023-02-20T02:59:10;8.60;99.90
22337;DHT22;14992;50.844;4.418;2023-02-20T03:01:43;8.60;99.90
22337;DHT22;14992;50.844;4.418;2023-02-20T03:04:13;8.50;99.90
22337;DHT22;14992;50.844;4.418;2023-02-20T03:06:52;8.60;99.90
22337;DHT22;14992;50.844;4.418;2023-02-20T03:09:26;8.50;99.90
22337;DHT22;14992;50.844;4.418;2023-02-20T03:11:57;8.60;99.90
22337;DHT22;14992;50.844;4.418;2023-02-20T03:14:30;8.60;99.90
22337;DHT22;14992;50.844;4.418;2023-02-20T03:17:25;8.60;99.90
22337;DHT22;14992;50.844;4.418;2023-02-20T03:19:58;8.70;99.90
22337;DHT22;14992;50.844;4.418;2023-02-20T03:22:34;8.70;99.90
22337;DHT22;14992;50.844;4.418;2023-02-20T03:25:12;8.70;99.90
22337;DHT22;14992;50.844;4.418;2023-02-20T03:27:48;8.60;99.90
22337;DHT22;14992;50.844;4.418;2023-02-20T03:30:23;8.70;99.90
22337;DHT22;14992;50.844;4.418;2023-02-20T03:32:57;8.70;99.90
22337;DHT22;14992;50.844;4.418;2023-02-20T03:35:48;8.70;99.90
22337;DHT22;14992;50.844;4.418;2023-02-20T03:38:40;8.60;99.90
22337;DHT22;14992;50.844;4.418;2023-02-20T03:41:30;8.60;99.90
22337;DHT22;14992;50.844;4.418;2023-02-20T03:44:20;8.70;99.90
22337;DHT22;14992;50.844;4.418;2023-02-20T03:46:51;8.70;99.90
22337;DHT22;14992;50.844;4.418;2023-02-20T03:49:26;8.60;99.90
22337;DHT22;14992;50.844;4.418;2023-02-20T03:51:56;8.70;99.90
22337;DHT22;14992;50.844;4.418;2023-02-20T03:54:43;8.70;99.90
22337;DHT22;14992;50.844;4.418;2023-02-20T03:57:16;8.80;99.90
22337;DHT22;14992;50.844;4.418;2023-02-20T03:59:51;8.70;99.90
22337;DHT22;14992;50.844;4.418;2023-02-20T04:02:23;8.70;99.90
22337;DHT22;14992;50.844;4.418;2023-02-20T04:04:56;8.70;99.90
22337;DHT22;14992;50.844;4.418;2023-02-20T04:07:32;8.70;99.90
22337;DHT22;14992;50.844;4.418;2023-02-20T04:10:06;8.80;99.90
22337;DHT22;14992;50.844;4.418;2023-02-20T04:12:42;8.80;99.90
22337;DHT22;14992;50.844;4.418;2023-02-20T04:15:13;8.70;99.90
22337;DHT22;14992;50.844;4.418;2023-02-20T04:17:46;8.60;99.90
22337;DHT22;14992;50.844;4.418;2023-02-20T04:20:16;8.60;99.90
22337;DHT22;14992;50.844;4.418;2023-02-20T04:23:00;8.60;99.90
22337;DHT22;14992;50.844;4.418;2023-02-20T04:25:34;8.50;99.90
22337;DHT22;14992;50.844;4.418;2023-02-20T04:28:06;8.60;99.90
22337;DHT22;14992;50.844;4.418;2023-02-20T04:30:46;8.60;99.90
22337;DHT22;14992;50.844;4.418;2023-02-20T04:33:16;8.60;99.90
22337;DHT22;14992;50.844;4.418;2023-02-20T04:35:46;8.60;99.90
22337;DHT22;14992;50.844;4.418;2023-02-20T04:38:15;8.70;99.90
22337;DHT22;14992;50.844;4.418;2023-02-20T04:40:44;8.60;99.90
22337;DHT22;14992;50.844;4.418;2023-02-20T04:43:14;8.70;99.90
22337;DHT22;14992;50.844;4.418;2023-02-20T04:45:43;8.70;99.90
22337;DHT22;14992;50.844;4.418;2023-02-20T04:48:12;8.80;99.90
22337;DHT22;14992;50.844;4.418;2023-02-20T04:50:42;8.70;99.90
22337;DHT22;14992;50.844;4.418;2023-02-20T04:53:12;8.80;99.90
22337;DHT22;14992;50.844;4.418;2023-02-20T04:55:41;8.80;99.90
22337;DHT22;14992;50.844;4.418;2023-02-20T04:58:15;8.70;99.90
22337;DHT22;14992;50.844;4.418;2023-02-20T05:00:50;8.80;99.90
22337;DHT22;14992;50.844;4.418;2023-02-20T05:03:19;8.80;99.90
22337;DHT22;14992;50.844;4.418;2023-02-20T05:05:48;8.80;99.90
22337;DHT22;14992;50.844;4.418;2023-02-20T05:08:16;8.80;99.90
22337;DHT22;14992;50.844;4.418;2023-02-20T05:10:45;8.80;99.90
22337;DHT22;14992;50.844;4.418;2023-02-20T05:13:15;8.80;99.90
22337;DHT22;14992;50.844;4.418;2023-02-20T05:15:44;8.80;99.90
22337;DHT22;14992;50.844;4.418;2023-02-20T05:18:13;8.80;99.90
22337;DHT22;14992;50.844;4.418;2023-02-20T05:20:50;8.80;99.90
22337;DHT22;14992;50.844;4.418;2023-02-20T05:23:36;8.80;99.90
22337;DHT22;14992;50.844;4.418;2023-02-20T05:26:07;8.70;99.90
22337;DHT22;14992;50.844;4.418;2023-02-20T05:28:38;8.80;99.90
22337;DHT22;14992;50.844;4.418;2023-02-20T05:31:07;8.80;99.90
22337;DHT22;14992;50.844;4.418;2023-02-20T05:33:36;8.80;99.90
22337;DHT22;14992;50.844;4.418;2023-02-20T05:36:05;8.80;99.90
22337;DHT22;14992;50.844;4.418;2023-02-20T05:38:34;8.90;99.90
22337;DHT22;14992;50.844;4.418;2023-02-20T05:41:03;8.90;99.90
22337;DHT22;14992;50.844;4.418;2023-02-20T05:43:32;9.00;99.90
22337;DHT22;14992;50.844;4.418;2023-02-20T05:46:02;8.90;99.90
22337;DHT22;14992;50.844;4.418;2023-02-20T05:48:31;8.90;99.90
22337;DHT22;14992;50.844;4.418;2023-02-20T05:51:00;9.10;99.90
22337;DHT22;14992;50.844;4.418;2023-02-20T05:53:29;9.20;99.90
22337;DHT22;14992;50.844;4.418;2023-02-20T05:55:58;9.10;99.90
22337;DHT22;14992;50.844;4.418;2023-02-20T05:58:27;9.00;99.90
22337;DHT22;14992;50.844;4.418;2023-02-20T06:00:56;8.90;99.90
22337;DHT22;14992;50.844;4.418;2023-02-20T06:03:26;8.80;99.90
22337;DHT22;14992;50.844;4.418;2023-02-20T06:05:55;8.80;99.90
22337;DHT22;14992;50.844;4.418;2023-02-20T06:08:23;8.90;99.90
22337;DHT22;14992;50.844;4.418;2023-02-20T06:10:52;9.00;99.90
22337;DHT22;14992;50.844;4.418;2023-02-20T06:13:22;9.00;99.90
22337;DHT22;14992;50.844;4.418;2023-02-20T06:15:51;8.90;99.90
22337;DHT22;14992;50.844;4.418;2023-02-20T06:18:19;9.00;99.90
22337;DHT22;14992;50.844;4.418;2023-02-20T06:20:49;9.10;99.90
22337;DHT22;14992;50.844;4.418;2023-02-20T06:23:18;9.00;99.90
22337;DHT22;14992;50.844;4.418;2023-02-20T06:25:47;9.00;99.90
22337;DHT22;14992;50.844;4.418;2023-02-20T06:28:16;8.80;99.90
22337;DHT22;14992;50.844;4.418;2023-02-20T06:30:44;8.70;99.90
22337;DHT22;14992;50.844;4.418;2023-02-20T06:33:13;8.70;99.90
22337;DHT22;14992;50.844;4.418;2023-02-20T06:35:42;8.50;99.90
22337;DHT22;14992;50.844;4.418;2023-02-20T06:38:13;8.60;99.90
22337;DHT22;14992;50.844;4.418;2023-02-20T06:40:41;8.50;99.90
22337;DHT22;14992;50.844;4.418;2023-02-20T06:43:11;8.50;99.90
22337;DHT22;14992;50.844;4.418;2023-02-20T06:45:40;8.60;99.90
22337;DHT22;14992;50.844;4.418;2023-02-20T06:48:09;8.60;99.90
22337;DHT22;14992;50.844;4.418;2023-02-20T06:50:38;8.60;99.90
22337;DHT22;14992;50.844;4.418;2023-02-20T06:53:07;8.60;99.90
22337;DHT22;14992;50.844;4.418;2023-02-20T06:55:37;8.60;99.90
22337;DHT22;14992;50.844;4.418;2023-02-20T06:58:06;8.50;99.90
22337;DHT22;14992;50.844;4.418;2023-02-20T07:00:37;8.50;99.90
22337;DHT22;14992;50.844;4.418;2023-02-20T07:03:06;8.50;99.90
22337;DHT22;14992;50.844;4.418;2023-02-20T07:05:35;8.60;99.90
22337;DHT22;14992;50.844;4.418;2023-02-20T07:08:04;8.70;99.90
22337;DHT22;14992;50.844;4.418;2023-02-20T07:10:32;8.60;99.90
22337;DHT22;14992;50.844;4.418;2023-02-20T07:13:02;8.60;99.90
22337;DHT22;14992;50.844;4.418;2023-02-20T07:15:32;8.60;99.90
22337;DHT22;14992;50.844;4.418;2023-02-20T07:18:01;8.70;99.90
22337;DHT22;14992;50.844;4.418;2023-02-20T07:20:30;8.80;99.90
22337;DHT22;14992;50.844;4.418;2023-02-20T07:22:58;8.80;99.90
22337;DHT22;14992;50.844;4.418;2023-02-20T07:25:27;8.80;99.90
22337;DHT22;14992;50.844;4.418;2023-02-20T07:27:56;8.80;99.90
22337;DHT22;14992;50.844;4.418;2023-02-20T07:30:26;8.80;99.90
22337;DHT22;14992;50.844;4.418;2023-02-20T07:32:55;8.80;99.90
22337;DHT22;14992;50.844;4.418;2023-02-20T07:35:24;8.90;99.90
22337;DHT22;14992;50.844;4.418;2023-02-20T07:38:01;8.90;99.90
22337;DHT22;14992;50.844;4.418;2023-02-20T07:40:30;8.90;99.90
22337;DHT22;14992;50.844;4.418;2023-02-20T07:42:58;8.90;99.90
22337;DHT22;14992;50.844;4.418;2023-02-20T07:45:30;8.90;99.90
22337;DHT22;14992;50.844;4.418;2023-02-20T07:47:58;9.00;99.90
22337;DHT22;14992;50.844;4.418;2023-02-20T07:50:27;8.90;99.90
22337;DHT22;14992;50.844;4.418;2023-02-20T07:52:56;8.90;99.90
22337;DHT22;14992;50.844;4.418;2023-02-20T07:55:25;9.00;99.90
22337;DHT22;14992;50.844;4.418;2023-02-20T07:57:54;9.10;99.90
22337;DHT22;14992;50.844;4.418;2023-02-20T08:00:25;9.20;99.90
22337;DHT22;14992;50.844;4.418;2023-02-20T08:02:56;9.30;99.90
22337;DHT22;14992;50.844;4.418;2023-02-20T08:05:26;9.30;99.90
22337;DHT22;14992;50.844;4.418;2023-02-20T08:08:04;9.50;99.90
22337;DHT22;14992;50.844;4.418;2023-02-20T08:10:35;9.50;99.90
22337;DHT22;14992;50.844;4.418;2023-02-20T08:13:04;9.50;99.90
22337;DHT22;14992;50.844;4.418;2023-02-20T08:15:33;9.50;99.90
22337;DHT22;14992;50.844;4.418;2023-02-20T08:18:03;9.40;99.90
22337;DHT22;14992;50.844;4.418;2023-02-20T08:20:42;9.40;99.90
22337;DHT22;14992;50.844;4.418;2023-02-20T08:23:15;9.40;99.90
22337;DHT22;14992;50.844;4.418;2023-02-20T08:25:45;9.30;99.90
22337;DHT22;14992;50.844;4.418;2023-02-20T08:28:14;9.30;99.90
22337;DHT22;14992;50.844;4.418;2023-02-20T08:30:43;9.40;99.90
22337;DHT22;14992;50.844;4.418;2023-02-20T08:33:13;9.40;99.90
22337;DHT22;14992;50.844;4.418;2023-02-20T08:35:42;9.50;99.90
22337;DHT22;14992;50.844;4.418;2023-02-20T08:38:23;9.50;99.90
22337;DHT22;14992;50.844;4.418;2023-02-20T08:40:57;9.50;99.90
22337;DHT22;14992;50.844;4.418;2023-02-20T08:43:26;9.40;99.90
22337;DHT22;14992;50.844;4.418;2023-02-20T08:45:55;9.30;99.90
22337;DHT22;14992;50.844;4.418;2023-02-20T08:48:26;9.30;99.90
22337;DHT22;14992;50.844;4.418;2023-02-20T08:50:54;9.30;99.90
22337;DHT22;14992;50.844;4.418;2023-02-20T08:53:23;9.30;99.90
22337;DHT22;14992;50.844;4.418;2023-02-20T08:55:52;9.40;99.90
22337;DHT22;14992;50.844;4.418;2023-02-20T08:58:22;9.40;99.90
22337;DHT22;14992;50.844;4.418;2023-02-20T09:00:51;9.40;99.90
22337;DHT22;14992;50.844;4.418;2023-02-20T09:03:21;9.30;99.90
22337;DHT22;14992;50.844;4.418;2023-02-20T09:05:51;9.30;99.90
22337;DHT22;14992;50.844;4.418;2023-02-20T09:08:20;9.40;99.90
22337;DHT22;14992;50.844;4.418;2023-02-20T09:10:49;9.50;99.90
22337;DHT22;14992;50.844;4.418;2023-02-20T09:13:18;9.50;99.90
22337;DHT22;14992;50.844;4.418;2023-02-20T09:15:46;9.50;99.90
22337;DHT22;14992;50.844;4.418;2023-02-20T09:18:15;9.40;99.90
22337;DHT22;14992;50.844;4.418;2023-02-20T09:20:44;9.40;99.90
22337;DHT22;14992;50.844;4.418;2023-02-20T09:23:15;9.60;99.90
22337;DHT22;14992;50.844;4.418;2023-02-20T09:25:47;9.50;99.90
22337;DHT22;14992;50.844;4.418;2023-02-20T09:28:16;9.40;99.90
22337;DHT22;14992;50.844;4.418;2023-02-20T09:30:45;9.30;99.90
22337;DHT22;14992;50.844;4.418;2023-02-20T09:33:13;9.40;99.90
22337;DHT22;14992;50.844;4.418;2023-02-20T09:35:43;9.40;99.90
22337;DHT22;14992;50.844;4.418;2023-02-20T09:38:12;9.40;99.90
22337;DHT22;14992;50.844;4.418;2023-02-20T09:40:43;9.40;99.90
22337;DHT22;14992;50.844;4.418;2023-02-20T09:43:16;9.40;99.90
22337;DHT22;14992;50.844;4.418;2023-02-20T09:45:54;9.40;99.90
22337;DHT22;14992;50.844;4.418;2023-02-20T09:48:39;9.40;99.90
22337;DHT22;14992;50.844;4.418;2023-02-20T09:51:14;9.30;99.90
22337;DHT22;14992;50.844;4.418;2023-02-20T09:53:51;9.40;99.90
22337;DHT22;14992;50.844;4.418;2023-02-20T09:56:27;9.40;99.90
22337;DHT22;14992;50.844;4.418;2023-02-20T09:59:01;9.50;99.90
22337;DHT22;14992;50.844;4.418;2023-02-20T10:01:33;9.50;99.90
22337;DHT22;14992;50.844;4.418;2023-02-20T10:04:05;9.40;99.90
22337;DHT22;14992;50.844;4.418;2023-02-20T10:06:35;9.50;99.90
22337;DHT22;14992;50.844;4.418;2023-02-20T10:09:08;9.60;99.90
22337;DHT22;14992;50.844;4.418;2023-02-20T10:11:49;9.60;99.90
22337;DHT22;14992;50.844;4.418;2023-02-20T10:17:20;9.50;99.90
22337;DHT22;14992;50.844;4.418;2023-02-20T10:19:56;9.60;99.90
22337;DHT22;14992;50.844;4.418;2023-02-20T10:22:31;9.70;99.90
22337;DHT22;14992;50.844;4.418;2023-02-20T10:25:03;9.90;99.90
22337;DHT22;14992;50.844;4.418;2023-02-20T10:27:47;10.00;99.90
22337;DHT22;14992;50.844;4.418;2023-02-20T10:30:23;9.90;99.90
22337;DHT22;14992;50.844;4.418;2023-02-20T10:32:57;9.80;99.90
22337;DHT22;14992;50.844;4.418;2023-02-20T10:35:33;9.80;99.90
22337;DHT22;14992;50.844;4.418;2023-02-20T10:38:07;9.70;99.90
22337;DHT22;14992;50.844;4.418;2023-02-20T10:40:41;9.70;99.90
22337;DHT22;14992;50.844;4.418;2023-02-20T10:43:17;9.60;99.90
22337;DHT22;14992;50.844;4.418;2023-02-20T10:45:54;9.70;99.90
22337;DHT22;14992;50.844;4.418;2023-02-20T10:48:30;9.60;99.90
22337;DHT22;14992;50.844;4.418;2023-02-20T10:51:05;9.70;99.90
22337;DHT22;14992;50.844;4.418;2023-02-20T10:53:40;9.80;99.90
22337;DHT22;14992;50.844;4.418;2023-02-20T10:56:17;9.70;99.90
22337;DHT22;14992;50.844;4.418;2023-02-20T10:58:54;9.90;99.90
22337;DHT22;14992;50.844;4.418;2023-02-20T11:01:26;10.00;99.90
22337;DHT22;14992;50.844;4.418;2023-02-20T11:03:59;9.90;99.90
22337;DHT22;14992;50.844;4.418;2023-02-20T11:06:33;10.00;99.90
22337;DHT22;14992;50.844;4.418;2023-02-20T11:09:04;10.10;99.90
22337;DHT22;14992;50.844;4.418;2023-02-20T11:11:35;10.00;99.90
22337;DHT22;14992;50.844;4.418;2023-02-20T11:14:11;9.90;99.90
22337;DHT22;14992;50.844;4.418;2023-02-20T11:16:45;9.80;99.90
22337;DHT22;14992;50.844;4.418;2023-02-20T11:19:19;9.90;99.90
22337;DHT22;14992;50.844;4.418;2023-02-20T11:21:49;9.90;99.90
22337;DHT22;14992;50.844;4.418;2023-02-20T11:24:27;10.00;99.90
22337;DHT22;14992;50.844;4.418;2023-02-20T11:27:11;10.10;99.90
22337;DHT22;14992;50.844;4.418;2023-02-20T11:29:47;10.30;99.90
22337;DHT22;14992;50.844;4.418;2023-02-20T11:32:29;10.40;99.90
22337;DHT22;14992;50.844;4.418;2023-02-20T11:35:14;10.50;99.90
22337;DHT22;14992;50.844;4.418;2023-02-20T11:37:49;10.40;99.90
22337;DHT22;14992;50.844;4.418;2023-02-20T11:40:26;10.40;99.90
22337;DHT22;14992;50.844;4.418;2023-02-20T11:42:56;10.30;99.90
22337;DHT22;14992;50.844;4.418;2023-02-20T11:45:38;10.30;99.90
22337;DHT22;14992;50.844;4.418;2023-02-20T11:48:09;10.40;99.90
22337;DHT22;14992;50.844;4.418;2023-02-20T11:50:40;10.50;99.90
22337;DHT22;14992;50.844;4.418;2023-02-20T11:53:18;10.60;99.90
22337;DHT22;14992;50.844;4.418;2023-02-20T11:55:48;10.60;99.90
22337;DHT22;14992;50.844;4.418;2023-02-20T11:58:27;10.80;99.90
22337;DHT22;14992;50.844;4.418;2023-02-20T12:00:58;10.80;99.90
22337;DHT22;14992;50.844;4.418;2023-02-20T12:03:28;10.90;99.90
22337;DHT22;14992;50.844;4.418;2023-02-20T12:05:58;10.80;99.90
22337;DHT22;14992;50.844;4.418;2023-02-20T12:08:47;10.70;99.90
22337;DHT22;14992;50.844;4.418;2023-02-20T12:11:21;10.70;99.90
22337;DHT22;14992;50.844;4.418;2023-02-20T12:13:52;10.80;99.90
22337;DHT22;14992;50.844;4.418;2023-02-20T12:16:56;10.80;99.90
22337;DHT22;14992;50.844;4.418;2023-02-20T12:19:39;10.80;99.90
22337;DHT22;14992;50.844;4.418;2023-02-20T12:22:19;10.90;99.90
22337;DHT22;14992;50.844;4.418;2023-02-20T12:25:02;10.90;99.90
22337;DHT22;14992;50.844;4.418;2023-02-20T12:27:46;10.90;99.90
22337;DHT22;14992;50.844;4.418;2023-02-20T12:30:26;11.00;99.90
22337;DHT22;14992;50.844;4.418;2023-02-20T12:33:12;11.00;99.90
22337;DHT22;14992;50.844;4.418;2023-02-20T12:35:53;11.00;99.90
22337;DHT22;14992;50.844;4.418;2023-02-20T12:38:31;10.80;99.90
22337;DHT22;14992;50.844;4.418;2023-02-20T12:41:17;10.80;99.90
22337;DHT22;14992;50.844;4.418;2023-02-20T12:43:54;10.90;99.90
22337;DHT22;14992;50.844;4.418;2023-02-20T12:46:46;11.00;99.90
22337;DHT22;14992;50.844;4.418;2023-02-20T12:49:27;10.80;99.90
22337;DHT22;14992;50.844;4.418;2023-02-20T12:52:03;10.70;99.90
22337;DHT22;14992;50.844;4.418;2023-02-20T12:54:38;10.70;99.90
22337;DHT22;14992;50.844;4.418;2023-02-20T12:57:16;10.50;99.90
22337;DHT22;14992;50.844;4.418;2023-02-20T12:59:54;10.60;99.90
22337;DHT22;14992;50.844;4.418;2023-02-20T13:02:27;10.70;99.90
22337;DHT22;14992;50.844;4.418;2023-02-20T13:05:12;10.60;99.90
22337;DHT22;14992;50.844;4.418;2023-02-20T13:07:45;10.70;99.90
22337;DHT22;14992;50.844;4.418;2023-02-20T13:10:15;10.90;99.90
22337;DHT22;14992;50.844;4.418;2023-02-20T13:12:44;10.90;99.90
22337;DHT22;14992;50.844;4.418;2023-02-20T13:15:26;10.90;99.90
22337;DHT22;14992;50.844;4.418;2023-02-20T13:18:03;11.00;99.90
22337;DHT22;14992;50.844;4.418;2023-02-20T13:20:38;11.10;99.90
22337;DHT22;14992;50.844;4.418;2023-02-20T13:23:29;11.20;99.90
22337;DHT22;14992;50.844;4.418;2023-02-20T13:25:58;11.10;99.90
22337;DHT22;14992;50.844;4.418;2023-02-20T13:28:39;11.10;99.90
22337;DHT22;14992;50.844;4.418;2023-02-20T13:31:18;11.10;99.90
22337;DHT22;14992;50.844;4.418;2023-02-20T13:33:49;11.10;99.90
22337;DHT22;14992;50.844;4.418;2023-02-20T13:36:38;10.90;99.90
22337;DHT22;14992;50.844;4.418;2023-02-20T13:39:37;10.90;99.90
22337;DHT22;14992;50.844;4.418;2023-02-20T13:42:31;10.90;99.90
22337;DHT22;14992;50.844;4.418;2023-02-20T13:45:00;11.00;99.90
22337;DHT22;14992;50.844;4.418;2023-02-20T13:47:34;11.10;99.90
22337;DHT22;14992;50.844;4.418;2023-02-20T13:50:37;11.00;99.90
22337;DHT22;14992;50.844;4.418;2023-02-20T13:53:07;10.80;99.90
22337;DHT22;14992;50.844;4.418;2023-02-20T13:55:37;10.80;99.90
22337;DHT22;14992;50.844;4.418;2023-02-20T13:58:11;10.90;99.90
22337;DHT22;14992;50.844;4.418;2023-02-20T14:00:48;10.90;99.90
22337;DHT22;14992;50.844;4.418;2023-02-20T14:03:21;10.90;99.90
22337;DHT22;14992;50.844;4.418;2023-02-20T14:06:01;10.90;99.90
22337;DHT22;14992;50.844;4.418;2023-02-20T14:08:32;10.90;99.90
22337;DHT22;14992;50.844;4.418;2023-02-20T14:11:06;10.90;99.90
22337;DHT22;14992;50.844;4.418;2023-02-20T14:13:35;11.00;99.90
22337;DHT22;14992;50.844;4.418;2023-02-20T14:16:23;11.00;99.90
22337;DHT22;14992;50.844;4.418;2023-02-20T14:18:56;11.10;99.90
22337;DHT22;14992;50.844;4.418;2023-02-20T14:21:26;11.10;99.90
22337;DHT22;14992;50.844;4.418;2023-02-20T14:24:12;11.20;99.90
22337;DHT22;14992;50.844;4.418;2023-02-20T14:26:44;11.30;99.90
22337;DHT22;14992;50.844;4.418;2023-02-20T14:29:22;11.20;99.90
22337;DHT22;14992;50.844;4.418;2023-02-20T14:31:51;11.00;99.90
22337;DHT22;14992;50.844;4.418;2023-02-20T14:34:26;11.00;99.90
22337;DHT22;14992;50.844;4.418;2023-02-20T14:37:04;11.00;99.90
22337;DHT22;14992;50.844;4.418;2023-02-20T14:39:46;10.90;99.90
22337;DHT22;14992;50.844;4.418;2023-02-20T14:42:17;11.10;99.90
22337;DHT22;14992;50.844;4.418;2023-02-20T14:44:54;11.20;99.90
22337;DHT22;14992;50.844;4.418;2023-02-20T14:47:27;11.20;99.90
22337;DHT22;14992;50.844;4.418;2023-02-20T14:50:16;11.30;99.90
22337;DHT22;14992;50.844;4.418;2023-02-20T14:52:59;11.20;99.90
22337;DHT22;14992;50.844;4.418;2023-02-20T14:55:29;11.30;99.90
22337;DHT22;14992;50.844;4.418;2023-02-20T14:58:04;11.30;99.90
22337;DHT22;14992;50.844;4.418;2023-02-20T15:00:35;11.20;99.90
22337;DHT22;14992;50.844;4.418;2023-02-20T15:03:07;11.10;99.90
22337;DHT22;14992;50.844;4.418;2023-02-20T15:06:00;11.10;99.90
22337;DHT22;14992;50.844;4.418;2023-02-20T15:08:31;11.20;99.90
22337;DHT22;14992;50.844;4.418;2023-02-20T15:11:07;11.30;99.90
22337;DHT22;14992;50.844;4.418;2023-02-20T15:13:39;11.30;99.90
22337;DHT22;14992;50.844;4.418;2023-02-20T15:16:14;11.20;99.90
22337;DHT22;14992;50.844;4.418;2023-02-20T15:18:45;11.20;99.90
22337;DHT22;14992;50.844;4.418;2023-02-20T15:21:33;11.10;99.90
22337;DHT22;14992;50.844;4.418;2023-02-20T15:24:24;11.20;99.90
22337;DHT22;14992;50.844;4.418;2023-02-20T15:27:06;11.10;99.90
22337;DHT22;14992;50.844;4.418;2023-02-20T15:29:35;10.90;99.90
22337;DHT22;14992;50.844;4.418;2023-02-20T15:32:05;10.90;99.90
22337;DHT22;14992;50.844;4.418;2023-02-20T15:34:36;11.00;99.90
22337;DHT22;14992;50.844;4.418;2023-02-20T15:37:16;11.00;99.90
22337;DHT22;14992;50.844;4.418;2023-02-20T15:39:53;11.00;99.90
22337;DHT22;14992;50.844;4.418;2023-02-20T15:42:24;10.80;99.90
22337;DHT22;14992;50.844;4.418;2023-02-20T15:44:53;10.90;99.90
22337;DHT22;14992;50.844;4.418;2023-02-20T15:47:22;10.90;99.90
22337;DHT22;14992;50.844;4.418;2023-02-20T15:49:51;11.00;99.90
22337;DHT22;14992;50.844;4.418;2023-02-20T15:52:26;11.10;99.90
22337;DHT22;14992;50.844;4.418;2023-02-20T15:54:56;11.00;99.90
22337;DHT22;14992;50.844;4.418;2023-02-20T15:57:26;11.00;99.90
22337;DHT22;14992;50.844;4.418;2023-02-20T15:59:55;11.00;99.90
22337;DHT22;14992;50.844;4.418;2023-02-20T16:02:24;10.90;99.90
22337;DHT22;14992;50.844;4.418;2023-02-20T16:04:54;11.00;99.90
22337;DHT22;14992;50.844;4.418;2023-02-20T16:07:23;11.00;99.90
22337;DHT22;14992;50.844;4.418;2023-02-20T16:09:52;10.90;99.90
22337;DHT22;14992;50.844;4.418;2023-02-20T16:12:27;10.70;99.90
22337;DHT22;14992;50.844;4.418;2023-02-20T16:14:59;10.60;99.90
22337;DHT22;14992;50.844;4.418;2023-02-20T16:17:31;10.60;99.90
22337;DHT22;14992;50.844;4.418;2023-02-20T16:20:00;10.60;99.90
22337;DHT22;14992;50.844;4.418;2023-02-20T16:22:29;10.70;99.90
22337;DHT22;14992;50.844;4.418;2023-02-20T16:24:59;10.80;99.90
22337;DHT22;14992;50.844;4.418;2023-02-20T16:27:29;10.80;99.90